sensor_id;sensor_type;location;lat;lon;timestamp;P1;durP1;ratioP1;P2;durP2;ratioP2
71038;SDS011;58692;43.212;27.908;2023-11-21T00:01:40;39.93;;;20.97;;
71038;SDS011;58692;43.212;27.908;2023-11-21T00:04:06;37.53;;;20.33;;
71038;SDS011;58692;43.212;27.908;2023-11-21T00:06:32;41.30;;;21.73;;
71038;SDS011;58692;43.212;27.908;2023-11-21T00:08:58;54.17;;;29.55;;
71038;SDS011;58692;43.212;27.908;2023-11-21T00:11:23;74.10;;;38.13;;
71038;SDS011;58692;43.212;27.908;2023-11-21T00:13:50;64.78;;;32.58;;
71038;SDS011;58692;43.212;27.908;2023-11-21T00:16:16;47.70;;;27.00;;
71038;SDS011;58692;43.212;27.908;2023-11-21T00:18:41;42.43;;;20.73;;
71038;SDS011;58692;43.212;27.908;2023-11-21T00:21:08;39.10;;;19.75;;
71038;SDS011;58692;43.212;27.908;2023-11-21T00:23:34;34.25;;;18.70;;
71038;SDS011;58692;43.212;27.908;2023-11-21T00:26:00;34.50;;;17.27;;
71038;SDS011;58692;43.212;27.908;2023-11-21T00:28:26;39.50;;;18.05;;
71038;SDS011;58692;43.212;27.908;2023-11-21T00:30:51;34.63;;;17.13;;
71038;SDS011;58692;43.212;27.908;2023-11-21T00:33:17;35.10;;;17.13;;
71038;SDS011;58692;43.212;27.908;2023-11-21T00:35:42;37.13;;;17.80;;
71038;SDS011;58692;43.212;27.908;2023-11-21T00:38:08;32.42;;;17.90;;
71038;SDS011;58692;43.212;27.908;2023-11-21T00:40:34;38.00;;;18.57;;
71038;SDS011;58692;43.212;27.908;2023-11-21T00:42:59;32.87;;;17.90;;
71038;SDS011;58692;43.212;27.908;2023-11-21T00:45:25;36.17;;;19.80;;
71038;SDS011;58692;43.212;27.908;2023-11-21T00:47:51;38.15;;;20.63;;
71038;SDS011;58692;43.212;27.908;2023-11-21T00:50:17;41.67;;;20.37;;
71038;SDS011;58692;43.212;27.908;2023-11-21T00:52:42;38.13;;;19.57;;
71038;SDS011;58692;43.212;27.908;2023-11-21T00:55:08;36.10;;;20.15;;
71038;SDS011;58692;43.212;27.908;2023-11-21T00:57:34;36.23;;;20.20;;
71038;SDS011;58692;43.212;27.908;2023-11-21T01:00:00;39.30;;;19.05;;
71038;SDS011;58692;43.212;27.908;2023-11-21T01:02:26;35.80;;;18.57;;
71038;SDS011;58692;43.212;27.908;2023-11-21T01:04:51;35.85;;;16.67;;
71038;SDS011;58692;43.212;27.908;2023-11-21T01:07:17;32.70;;;16.53;;
71038;SDS011;58692;43.212;27.908;2023-11-21T01:09:45;32.72;;;16.13;;
71038;SDS011;58692;43.212;27.908;2023-11-21T01:12:11;31.98;;;14.63;;
71038;SDS011;58692;43.212;27.908;2023-11-21T01:14:37;24.67;;;13.93;;
71038;SDS011;58692;43.212;27.908;2023-11-21T01:17:02;22.80;;;12.85;;
71038;SDS011;58692;43.212;27.908;2023-11-21T01:19:29;24.07;;;12.47;;
71038;SDS011;58692;43.212;27.908;2023-11-21T01:21:55;23.35;;;13.43;;
71038;SDS011;58692;43.212;27.908;2023-11-21T01:24:23;23.07;;;12.20;;
71038;SDS011;58692;43.212;27.908;2023-11-21T01:26:48;22.65;;;12.45;;
71038;SDS011;58692;43.212;27.908;2023-11-21T01:29:14;22.93;;;12.57;;
71038;SDS011;58692;43.212;27.908;2023-11-21T01:31:40;22.95;;;12.23;;
71038;SDS011;58692;43.212;27.908;2023-11-21T01:34:06;26.58;;;13.27;;
71038;SDS011;58692;43.212;27.908;2023-11-21T01:36:32;25.40;;;12.67;;
71038;SDS011;58692;43.212;27.908;2023-11-21T01:38:58;27.77;;;13.13;;
71038;SDS011;58692;43.212;27.908;2023-11-21T01:41:25;24.27;;;12.50;;
71038;SDS011;58692;43.212;27.908;2023-11-21T01:43:54;21.70;;;11.93;;
71038;SDS011;58692;43.212;27.908;2023-11-21T01:46:20;23.48;;;12.05;;
71038;SDS011;58692;43.212;27.908;2023-11-21T01:48:48;22.70;;;11.97;;
71038;SDS011;58692;43.212;27.908;2023-11-21T01:51:14;21.75;;;10.85;;
71038;SDS011;58692;43.212;27.908;2023-11-21T01:53:40;23.77;;;12.55;;
71038;SDS011;58692;43.212;27.908;2023-11-21T01:56:06;22.47;;;12.23;;
71038;SDS011;58692;43.212;27.908;2023-11-21T01:58:33;22.02;;;11.85;;
71038;SDS011;58692;43.212;27.908;2023-11-21T02:00:59;21.30;;;11.98;;
71038;SDS011;58692;43.212;27.908;2023-11-21T02:03:25;22.60;;;12.00;;
71038;SDS011;58692;43.212;27.908;2023-11-21T02:05:52;24.92;;;12.13;;
71038;SDS011;58692;43.212;27.908;2023-11-21T02:08:18;21.33;;;11.73;;
71038;SDS011;58692;43.212;27.908;2023-11-21T02:10:44;23.50;;;11.63;;
71038;SDS011;58692;43.212;27.908;2023-11-21T02:13:10;22.65;;;11.40;;
71038;SDS011;58692;43.212;27.908;2023-11-21T02:15:36;23.88;;;11.95;;
71038;SDS011;58692;43.212;27.908;2023-11-21T02:18:03;22.95;;;12.48;;
71038;SDS011;58692;43.212;27.908;2023-11-21T02:20:31;26.60;;;12.73;;
71038;SDS011;58692;43.212;27.908;2023-11-21T02:23:00;24.53;;;12.20;;
71038;SDS011;58692;43.212;27.908;2023-11-21T02:25:27;24.90;;;12.00;;
71038;SDS011;58692;43.212;27.908;2023-11-21T02:27:55;23.40;;;11.57;;
71038;SDS011;58692;43.212;27.908;2023-11-21T02:30:22;23.10;;;11.52;;
71038;SDS011;58692;43.212;27.908;2023-11-21T02:32:50;23.08;;;11.18;;
71038;SDS011;58692;43.212;27.908;2023-11-21T02:35:18;23.57;;;10.77;;
71038;SDS011;58692;43.212;27.908;2023-11-21T02:37:46;23.27;;;11.65;;
71038;SDS011;58692;43.212;27.908;2023-11-21T02:40:12;25.08;;;11.48;;
71038;SDS011;58692;43.212;27.908;2023-11-21T02:42:39;20.10;;;10.45;;
71038;SDS011;58692;43.212;27.908;2023-11-21T02:45:06;19.38;;;9.95;;
71038;SDS011;58692;43.212;27.908;2023-11-21T02:47:32;21.27;;;11.47;;
71038;SDS011;58692;43.212;27.908;2023-11-21T02:49:58;19.45;;;9.90;;
71038;SDS011;58692;43.212;27.908;2023-11-21T02:52:24;21.10;;;9.82;;
71038;SDS011;58692;43.212;27.908;2023-11-21T02:54:50;18.63;;;8.70;;
71038;SDS011;58692;43.212;27.908;2023-11-21T02:57:16;17.95;;;8.07;;
71038;SDS011;58692;43.212;27.908;2023-11-21T02:59:42;14.93;;;7.80;;
71038;SDS011;58692;43.212;27.908;2023-11-21T03:02:07;15.80;;;7.70;;
71038;SDS011;58692;43.212;27.908;2023-11-21T03:04:33;14.77;;;7.83;;
71038;SDS011;58692;43.212;27.908;2023-11-21T03:07:00;14.32;;;7.30;;
71038;SDS011;58692;43.212;27.908;2023-11-21T03:09:25;14.07;;;7.40;;
71038;SDS011;58692;43.212;27.908;2023-11-21T03:11:52;16.52;;;7.22;;
71038;SDS011;58692;43.212;27.908;2023-11-21T03:14:18;16.90;;;7.10;;
71038;SDS011;58692;43.212;27.908;2023-11-21T03:16:43;13.93;;;7.10;;
71038;SDS011;58692;43.212;27.908;2023-11-21T03:19:10;16.90;;;7.47;;
71038;SDS011;58692;43.212;27.908;2023-11-21T03:21:36;15.90;;;7.77;;
71038;SDS011;58692;43.212;27.908;2023-11-21T03:24:02;16.48;;;7.28;;
71038;SDS011;58692;43.212;27.908;2023-11-21T03:26:28;15.73;;;7.60;;
71038;SDS011;58692;43.212;27.908;2023-11-21T03:28:54;13.27;;;6.80;;
71038;SDS011;58692;43.212;27.908;2023-11-21T03:31:20;12.68;;;6.20;;
71038;SDS011;58692;43.212;27.908;2023-11-21T03:33:46;13.43;;;6.30;;
71038;SDS011;58692;43.212;27.908;2023-11-21T03:36:12;12.83;;;5.70;;
71038;SDS011;58692;43.212;27.908;2023-11-21T03:38:40;12.98;;;6.53;;
71038;SDS011;58692;43.212;27.908;2023-11-21T03:41:07;13.10;;;5.57;;
71038;SDS011;58692;43.212;27.908;2023-11-21T03:43:35;14.13;;;6.25;;
71038;SDS011;58692;43.212;27.908;2023-11-21T03:46:01;13.02;;;5.85;;
71038;SDS011;58692;43.212;27.908;2023-11-21T03:48:28;14.00;;;6.37;;
71038;SDS011;58692;43.212;27.908;2023-11-21T03:50:54;14.05;;;7.07;;
71038;SDS011;58692;43.212;27.908;2023-11-21T03:53:20;14.52;;;8.45;;
71038;SDS011;58692;43.212;27.908;2023-11-21T03:55:45;22.30;;;10.27;;
71038;SDS011;58692;43.212;27.908;2023-11-21T03:58:11;21.53;;;11.43;;
71038;SDS011;58692;43.212;27.908;2023-11-21T04:00:37;23.40;;;12.40;;
71038;SDS011;58692;43.212;27.908;2023-11-21T04:03:03;23.65;;;12.48;;
71038;SDS011;58692;43.212;27.908;2023-11-21T04:05:28;26.87;;;13.57;;
71038;SDS011;58692;43.212;27.908;2023-11-21T04:07:54;25.93;;;14.37;;
71038;SDS011;58692;43.212;27.908;2023-11-21T04:10:19;31.25;;;14.23;;
71038;SDS011;58692;43.212;27.908;2023-11-21T04:12:45;28.30;;;14.40;;
71038;SDS011;58692;43.212;27.908;2023-11-21T04:15:11;29.25;;;15.52;;
71038;SDS011;58692;43.212;27.908;2023-11-21T04:17:38;31.73;;;15.75;;
71038;SDS011;58692;43.212;27.908;2023-11-21T04:20:04;32.20;;;16.50;;
71038;SDS011;58692;43.212;27.908;2023-11-21T04:22:34;33.07;;;16.47;;
71038;SDS011;58692;43.212;27.908;2023-11-21T04:25:06;26.85;;;15.05;;
71038;SDS011;58692;43.212;27.908;2023-11-21T04:27:36;25.60;;;14.55;;
71038;SDS011;58692;43.212;27.908;2023-11-21T04:30:04;27.23;;;13.70;;
71038;SDS011;58692;43.212;27.908;2023-11-21T04:32:30;31.02;;;14.70;;
71038;SDS011;58692;43.212;27.908;2023-11-21T04:34:56;30.53;;;14.53;;
71038;SDS011;58692;43.212;27.908;2023-11-21T04:37:21;29.20;;;14.50;;
71038;SDS011;58692;43.212;27.908;2023-11-21T04:39:47;28.75;;;14.30;;
71038;SDS011;58692;43.212;27.908;2023-11-21T04:42:13;29.10;;;14.63;;
71038;SDS011;58692;43.212;27.908;2023-11-21T04:44:38;29.10;;;14.60;;
71038;SDS011;58692;43.212;27.908;2023-11-21T04:47:06;29.53;;;14.57;;
71038;SDS011;58692;43.212;27.908;2023-11-21T04:49:32;30.83;;;15.13;;
71038;SDS011;58692;43.212;27.908;2023-11-21T04:51:58;27.38;;;14.70;;
71038;SDS011;58692;43.212;27.908;2023-11-21T04:54:24;34.80;;;15.80;;
71038;SDS011;58692;43.212;27.908;2023-11-21T04:56:50;33.58;;;17.23;;
71038;SDS011;58692;43.212;27.908;2023-11-21T04:59:15;35.10;;;17.00;;
71038;SDS011;58692;43.212;27.908;2023-11-21T05:01:41;29.48;;;14.70;;
71038;SDS011;58692;43.212;27.908;2023-11-21T05:04:06;33.27;;;15.10;;
71038;SDS011;58692;43.212;27.908;2023-11-21T05:06:33;28.98;;;14.05;;
71038;SDS011;58692;43.212;27.908;2023-11-21T05:08:59;26.50;;;12.77;;
71038;SDS011;58692;43.212;27.908;2023-11-21T05:11:26;29.60;;;13.20;;
71038;SDS011;58692;43.212;27.908;2023-11-21T05:13:52;28.15;;;14.73;;
71038;SDS011;58692;43.212;27.908;2023-11-21T05:16:19;31.40;;;14.65;;
71038;SDS011;58692;43.212;27.908;2023-11-21T05:18:45;30.95;;;15.30;;
71038;SDS011;58692;43.212;27.908;2023-11-21T05:21:10;28.23;;;14.37;;
71038;SDS011;58692;43.212;27.908;2023-11-21T05:23:36;26.10;;;13.88;;
71038;SDS011;58692;43.212;27.908;2023-11-21T05:26:05;30.37;;;13.67;;
71038;SDS011;58692;43.212;27.908;2023-11-21T05:28:31;26.88;;;13.82;;
71038;SDS011;58692;43.212;27.908;2023-11-21T05:30:58;27.42;;;13.68;;
71038;SDS011;58692;43.212;27.908;2023-11-21T05:33:23;31.27;;;14.40;;
71038;SDS011;58692;43.212;27.908;2023-11-21T05:35:50;32.08;;;16.65;;
71038;SDS011;58692;43.212;27.908;2023-11-21T05:38:18;40.53;;;19.35;;
71038;SDS011;58692;43.212;27.908;2023-11-21T05:40:46;45.40;;;23.48;;
71038;SDS011;58692;43.212;27.908;2023-11-21T05:43:12;46.90;;;26.02;;
71038;SDS011;58692;43.212;27.908;2023-11-21T05:45:40;67.57;;;35.97;;
71038;SDS011;58692;43.212;27.908;2023-11-21T05:48:06;96.32;;;54.30;;
71038;SDS011;58692;43.212;27.908;2023-11-21T05:50:31;140.50;;;83.30;;
71038;SDS011;58692;43.212;27.908;2023-11-21T05:52:57;155.00;;;92.53;;
71038;SDS011;58692;43.212;27.908;2023-11-21T05:55:25;116.25;;;67.70;;
71038;SDS011;58692;43.212;27.908;2023-11-21T05:57:51;85.63;;;48.45;;
71038;SDS011;58692;43.212;27.908;2023-11-21T06:00:19;66.18;;;36.03;;
71038;SDS011;58692;43.212;27.908;2023-11-21T06:02:46;44.63;;;23.53;;
71038;SDS011;58692;43.212;27.908;2023-11-21T06:05:12;40.10;;;22.23;;
71038;SDS011;58692;43.212;27.908;2023-11-21T06:07:38;41.20;;;20.90;;
71038;SDS011;58692;43.212;27.908;2023-11-21T06:10:05;37.97;;;19.42;;
71038;SDS011;58692;43.212;27.908;2023-11-21T06:12:35;32.77;;;17.50;;
71038;SDS011;58692;43.212;27.908;2023-11-21T06:15:02;33.78;;;17.42;;
71038;SDS011;58692;43.212;27.908;2023-11-21T06:17:30;30.35;;;15.43;;
71038;SDS011;58692;43.212;27.908;2023-11-21T06:19:57;29.43;;;16.00;;
71038;SDS011;58692;43.212;27.908;2023-11-21T06:22:26;28.67;;;14.80;;
71038;SDS011;58692;43.212;27.908;2023-11-21T06:24:51;27.33;;;13.38;;
71038;SDS011;58692;43.212;27.908;2023-11-21T06:27:17;26.33;;;14.35;;
71038;SDS011;58692;43.212;27.908;2023-11-21T06:29:43;27.63;;;13.53;;
71038;SDS011;58692;43.212;27.908;2023-11-21T06:32:08;27.70;;;14.37;;
71038;SDS011;58692;43.212;27.908;2023-11-21T06:34:34;32.60;;;15.57;;
71038;SDS011;58692;43.212;27.908;2023-11-21T06:36:59;29.70;;;15.30;;
71038;SDS011;58692;43.212;27.908;2023-11-21T06:39:25;28.13;;;15.23;;
71038;SDS011;58692;43.212;27.908;2023-11-21T06:41:51;30.20;;;14.83;;
71038;SDS011;58692;43.212;27.908;2023-11-21T06:44:16;32.30;;;16.13;;
71038;SDS011;58692;43.212;27.908;2023-11-21T06:46:42;32.75;;;16.30;;
71038;SDS011;58692;43.212;27.908;2023-11-21T06:49:08;31.47;;;16.77;;
71038;SDS011;58692;43.212;27.908;2023-11-21T06:51:33;30.35;;;16.80;;
71038;SDS011;58692;43.212;27.908;2023-11-21T06:53:59;33.57;;;16.50;;
71038;SDS011;58692;43.212;27.908;2023-11-21T06:56:25;30.45;;;15.73;;
71038;SDS011;58692;43.212;27.908;2023-11-21T06:58:50;33.60;;;16.00;;
71038;SDS011;58692;43.212;27.908;2023-11-21T07:01:19;33.55;;;17.17;;
71038;SDS011;58692;43.212;27.908;2023-11-21T07:03:44;36.03;;;17.83;;
71038;SDS011;58692;43.212;27.908;2023-11-21T07:06:10;33.50;;;16.37;;
71038;SDS011;58692;43.212;27.908;2023-11-21T07:08:36;32.05;;;17.95;;
71038;SDS011;58692;43.212;27.908;2023-11-21T07:11:04;39.08;;;19.67;;
71038;SDS011;58692;43.212;27.908;2023-11-21T07:13:30;42.20;;;21.20;;
71038;SDS011;58692;43.212;27.908;2023-11-21T07:15:57;39.15;;;21.23;;
71038;SDS011;58692;43.212;27.908;2023-11-21T07:18:23;34.88;;;19.75;;
71038;SDS011;58692;43.212;27.908;2023-11-21T07:20:49;42.87;;;20.43;;
71038;SDS011;58692;43.212;27.908;2023-11-21T07:23:15;42.45;;;21.50;;
71038;SDS011;58692;43.212;27.908;2023-11-21T07:25:40;42.23;;;21.80;;
71038;SDS011;58692;43.212;27.908;2023-11-21T07:28:08;44.35;;;22.10;;
71038;SDS011;58692;43.212;27.908;2023-11-21T07:30:34;41.87;;;21.50;;
71038;SDS011;58692;43.212;27.908;2023-11-21T07:33:00;38.45;;;21.02;;
71038;SDS011;58692;43.212;27.908;2023-11-21T07:35:25;39.05;;;21.77;;
71038;SDS011;58692;43.212;27.908;2023-11-21T07:37:51;42.57;;;23.03;;
71038;SDS011;58692;43.212;27.908;2023-11-21T07:40:17;44.30;;;23.98;;
71038;SDS011;58692;43.212;27.908;2023-11-21T07:42:43;37.27;;;22.43;;
71038;SDS011;58692;43.212;27.908;2023-11-21T07:45:09;37.17;;;20.08;;
71038;SDS011;58692;43.212;27.908;2023-11-21T07:47:34;39.35;;;19.63;;
71038;SDS011;58692;43.212;27.908;2023-11-21T07:50:01;33.20;;;17.67;;
71038;SDS011;58692;43.212;27.908;2023-11-21T07:52:28;35.80;;;17.98;;
71038;SDS011;58692;43.212;27.908;2023-11-21T07:54:54;36.30;;;18.03;;
71038;SDS011;58692;43.212;27.908;2023-11-21T07:57:19;40.55;;;18.90;;
71038;SDS011;58692;43.212;27.908;2023-11-21T07:59:45;38.60;;;17.67;;
71038;SDS011;58692;43.212;27.908;2023-11-21T08:02:10;35.05;;;18.30;;
71038;SDS011;58692;43.212;27.908;2023-11-21T08:04:36;32.03;;;19.00;;
71038;SDS011;58692;43.212;27.908;2023-11-21T08:07:02;36.15;;;19.10;;
71038;SDS011;58692;43.212;27.908;2023-11-21T08:09:28;30.85;;;14.25;;
71038;SDS011;58692;43.212;27.908;2023-11-21T08:11:55;28.38;;;12.75;;
71038;SDS011;58692;43.212;27.908;2023-11-21T08:14:21;25.07;;;12.93;;
71038;SDS011;58692;43.212;27.908;2023-11-21T08:16:50;23.23;;;12.48;;
71038;SDS011;58692;43.212;27.908;2023-11-21T08:19:16;30.67;;;13.73;;
71038;SDS011;58692;43.212;27.908;2023-11-21T08:21:43;30.00;;;14.85;;
71038;SDS011;58692;43.212;27.908;2023-11-21T08:24:11;34.57;;;14.80;;
71038;SDS011;58692;43.212;27.908;2023-11-21T08:26:37;31.58;;;15.40;;
71038;SDS011;58692;43.212;27.908;2023-11-21T08:29:03;27.40;;;15.50;;
71038;SDS011;58692;43.212;27.908;2023-11-21T08:31:32;35.83;;;16.63;;
71038;SDS011;58692;43.212;27.908;2023-11-21T08:33:57;27.92;;;15.32;;
71038;SDS011;58692;43.212;27.908;2023-11-21T08:36:23;29.83;;;16.07;;
71038;SDS011;58692;43.212;27.908;2023-11-21T08:38:50;31.05;;;15.73;;
71038;SDS011;58692;43.212;27.908;2023-11-21T08:41:18;22.85;;;13.32;;
71038;SDS011;58692;43.212;27.908;2023-11-21T08:43:48;28.67;;;13.15;;
71038;SDS011;58692;43.212;27.908;2023-11-21T08:46:16;22.93;;;12.47;;
71038;SDS011;58692;43.212;27.908;2023-11-21T08:48:47;30.85;;;13.15;;
71038;SDS011;58692;43.212;27.908;2023-11-21T08:51:23;27.48;;;14.60;;
71038;SDS011;58692;43.212;27.908;2023-11-21T08:54:16;36.33;;;17.77;;
71038;SDS011;58692;43.212;27.908;2023-11-21T08:56:53;36.65;;;18.50;;
71038;SDS011;58692;43.212;27.908;2023-11-21T08:59:25;36.60;;;15.23;;
71038;SDS011;58692;43.212;27.908;2023-11-21T09:01:51;34.92;;;14.73;;
71038;SDS011;58692;43.212;27.908;2023-11-21T09:04:17;25.52;;;14.00;;
71038;SDS011;58692;43.212;27.908;2023-11-21T09:06:45;24.80;;;11.73;;
71038;SDS011;58692;43.212;27.908;2023-11-21T09:09:12;18.83;;;10.33;;
71038;SDS011;58692;43.212;27.908;2023-11-21T09:11:40;20.75;;;10.57;;
71038;SDS011;58692;43.212;27.908;2023-11-21T09:14:17;23.48;;;11.88;;
71038;SDS011;58692;43.212;27.908;2023-11-21T09:17:13;21.37;;;11.00;;
71038;SDS011;58692;43.212;27.908;2023-11-21T09:20:16;16.58;;;8.25;;
71038;SDS011;58692;43.212;27.908;2023-11-21T09:22:55;13.40;;;5.18;;
71038;SDS011;58692;43.212;27.908;2023-11-21T09:25:32;10.90;;;4.15;;
71038;SDS011;58692;43.212;27.908;2023-11-21T09:27:58;11.00;;;4.13;;
71038;SDS011;58692;43.212;27.908;2023-11-21T09:30:24;15.70;;;5.27;;
71038;SDS011;58692;43.212;27.908;2023-11-21T09:32:50;11.27;;;4.63;;
71038;SDS011;58692;43.212;27.908;2023-11-21T09:35:17;11.82;;;4.35;;
71038;SDS011;58692;43.212;27.908;2023-11-21T09:37:45;10.70;;;4.00;;
71038;SDS011;58692;43.212;27.908;2023-11-21T09:40:11;15.27;;;4.30;;
71038;SDS011;58692;43.212;27.908;2023-11-21T09:42:40;13.73;;;4.38;;
71038;SDS011;58692;43.212;27.908;2023-11-21T09:45:29;11.27;;;4.45;;
71038;SDS011;58692;43.212;27.908;2023-11-21T09:48:10;11.53;;;4.10;;
71038;SDS011;58692;43.212;27.908;2023-11-21T09:51:02;11.20;;;4.10;;
71038;SDS011;58692;43.212;27.908;2023-11-21T09:53:28;9.57;;;3.97;;
71038;SDS011;58692;43.212;27.908;2023-11-21T09:56:19;10.02;;;3.85;;
71038;SDS011;58692;43.212;27.908;2023-11-21T09:58:52;10.77;;;3.88;;
71038;SDS011;58692;43.212;27.908;2023-11-21T10:01:22;12.43;;;3.70;;
71038;SDS011;58692;43.212;27.908;2023-11-21T10:03:50;11.60;;;4.28;;
71038;SDS011;58692;43.212;27.908;2023-11-21T10:06:16;14.07;;;4.57;;
71038;SDS011;58692;43.212;27.908;2023-11-21T10:08:43;17.38;;;4.65;;
71038;SDS011;58692;43.212;27.908;2023-11-21T10:11:09;17.57;;;4.17;;
71038;SDS011;58692;43.212;27.908;2023-11-21T10:13:37;12.73;;;5.10;;
71038;SDS011;58692;43.212;27.908;2023-11-21T10:16:06;14.07;;;5.22;;
71038;SDS011;58692;43.212;27.908;2023-11-21T10:18:37;21.70;;;6.40;;
71038;SDS011;58692;43.212;27.908;2023-11-21T10:23:51;14.37;;;5.40;;
71038;SDS011;58692;43.212;27.908;2023-11-21T10:26:19;13.60;;;5.40;;
71038;SDS011;58692;43.212;27.908;2023-11-21T10:28:57;12.18;;;5.07;;
71038;SDS011;58692;43.212;27.908;2023-11-21T10:31:29;12.98;;;5.78;;
71038;SDS011;58692;43.212;27.908;2023-11-21T10:34:11;17.85;;;7.15;;
71038;SDS011;58692;43.212;27.908;2023-11-21T10:36:38;19.00;;;8.60;;
71038;SDS011;58692;43.212;27.908;2023-11-21T10:39:03;18.55;;;7.97;;
71038;SDS011;58692;43.212;27.908;2023-11-21T10:41:29;20.30;;;9.83;;
71038;SDS011;58692;43.212;27.908;2023-11-21T10:43:55;17.00;;;7.30;;
71038;SDS011;58692;43.212;27.908;2023-11-21T10:46:21;20.90;;;7.70;;
71038;SDS011;58692;43.212;27.908;2023-11-21T10:48:52;19.63;;;7.85;;
71038;SDS011;58692;43.212;27.908;2023-11-21T10:51:21;18.48;;;7.07;;
71038;SDS011;58692;43.212;27.908;2023-11-21T10:53:47;21.45;;;8.30;;
71038;SDS011;58692;43.212;27.908;2023-11-21T10:56:13;18.53;;;6.90;;
71038;SDS011;58692;43.212;27.908;2023-11-21T10:58:42;16.27;;;6.90;;
71038;SDS011;58692;43.212;27.908;2023-11-21T11:01:08;14.63;;;7.13;;
71038;SDS011;58692;43.212;27.908;2023-11-21T11:03:41;20.00;;;6.32;;
71038;SDS011;58692;43.212;27.908;2023-11-21T11:06:11;14.40;;;6.00;;
71038;SDS011;58692;43.212;27.908;2023-11-21T11:08:58;12.53;;;5.23;;
71038;SDS011;58692;43.212;27.908;2023-11-21T11:11:27;12.35;;;5.07;;
71038;SDS011;58692;43.212;27.908;2023-11-21T11:13:56;10.35;;;4.25;;
71038;SDS011;58692;43.212;27.908;2023-11-21T11:16:31;10.80;;;4.70;;
71038;SDS011;58692;43.212;27.908;2023-11-21T11:19:09;13.93;;;5.00;;
71038;SDS011;58692;43.212;27.908;2023-11-21T11:27:22;9.70;;;4.00;;
71038;SDS011;58692;43.212;27.908;2023-11-21T11:33:10;12.30;;;4.00;;
71038;SDS011;58692;43.212;27.908;2023-11-21T11:38:36;9.13;;;3.78;;
71038;SDS011;58692;43.212;27.908;2023-11-21T11:41:03;11.57;;;4.43;;
71038;SDS011;58692;43.212;27.908;2023-11-21T11:43:30;11.25;;;4.15;;
71038;SDS011;58692;43.212;27.908;2023-11-21T11:46:02;10.57;;;4.50;;
71038;SDS011;58692;43.212;27.908;2023-11-21T11:48:34;10.00;;;3.38;;
71038;SDS011;58692;43.212;27.908;2023-11-21T11:53:39;8.80;;;3.28;;
71038;SDS011;58692;43.212;27.908;2023-11-21T11:58:54;14.07;;;4.53;;
71038;SDS011;58692;43.212;27.908;2023-11-21T12:01:24;11.50;;;4.72;;
71038;SDS011;58692;43.212;27.908;2023-11-21T12:06:36;13.70;;;4.88;;
71038;SDS011;58692;43.212;27.908;2023-11-21T12:09:02;11.68;;;5.18;;
71038;SDS011;58692;43.212;27.908;2023-11-21T12:11:31;10.00;;;4.83;;
71038;SDS011;58692;43.212;27.908;2023-11-21T12:14:03;13.93;;;5.45;;
71038;SDS011;58692;43.212;27.908;2023-11-21T12:16:32;10.63;;;4.78;;
71038;SDS011;58692;43.212;27.908;2023-11-21T12:19:07;10.32;;;4.45;;
71038;SDS011;58692;43.212;27.908;2023-11-21T12:21:33;12.25;;;4.82;;
71038;SDS011;58692;43.212;27.908;2023-11-21T12:24:05;9.43;;;4.43;;
71038;SDS011;58692;43.212;27.908;2023-11-21T12:26:34;10.63;;;4.25;;
71038;SDS011;58692;43.212;27.908;2023-11-21T12:29:01;9.23;;;4.05;;
71038;SDS011;58692;43.212;27.908;2023-11-21T12:31:33;11.60;;;4.60;;
71038;SDS011;58692;43.212;27.908;2023-11-21T12:34:26;11.40;;;4.57;;
71038;SDS011;58692;43.212;27.908;2023-11-21T12:36:51;13.40;;;4.60;;
71038;SDS011;58692;43.212;27.908;2023-11-21T12:39:26;9.77;;;4.22;;
71038;SDS011;58692;43.212;27.908;2023-11-21T12:42:57;8.73;;;4.00;;
71038;SDS011;58692;43.212;27.908;2023-11-21T12:45:36;9.13;;;3.65;;
71038;SDS011;58692;43.212;27.908;2023-11-21T12:48:11;9.90;;;3.63;;
71038;SDS011;58692;43.212;27.908;2023-11-21T12:50:42;10.70;;;4.07;;
71038;SDS011;58692;43.212;27.908;2023-11-21T12:53:31;10.77;;;4.10;;
71038;SDS011;58692;43.212;27.908;2023-11-21T12:56:06;9.05;;;3.85;;
71038;SDS011;58692;43.212;27.908;2023-11-21T12:58:44;10.25;;;3.58;;
71038;SDS011;58692;43.212;27.908;2023-11-21T13:01:18;8.27;;;3.47;;
71038;SDS011;58692;43.212;27.908;2023-11-21T13:04:40;9.17;;;3.73;;
71038;SDS011;58692;43.212;27.908;2023-11-21T13:07:06;6.50;;;3.42;;
71038;SDS011;58692;43.212;27.908;2023-11-21T13:09:38;8.65;;;3.80;;
71038;SDS011;58692;43.212;27.908;2023-11-21T13:12:03;9.67;;;4.60;;
71038;SDS011;58692;43.212;27.908;2023-11-21T13:14:29;10.25;;;4.45;;
71038;SDS011;58692;43.212;27.908;2023-11-21T13:16:57;7.85;;;3.67;;
71038;SDS011;58692;43.212;27.908;2023-11-21T13:19:22;7.77;;;3.67;;
71038;SDS011;58692;43.212;27.908;2023-11-21T13:21:49;9.07;;;4.00;;
71038;SDS011;58692;43.212;27.908;2023-11-21T13:24:15;8.80;;;3.90;;
71038;SDS011;58692;43.212;27.908;2023-11-21T13:26:43;8.52;;;3.28;;
71038;SDS011;58692;43.212;27.908;2023-11-21T13:29:11;7.35;;;3.33;;
71038;SDS011;58692;43.212;27.908;2023-11-21T13:31:38;8.10;;;3.40;;
71038;SDS011;58692;43.212;27.908;2023-11-21T13:34:04;8.98;;;3.40;;
71038;SDS011;58692;43.212;27.908;2023-11-21T13:36:30;8.80;;;3.60;;
71038;SDS011;58692;43.212;27.908;2023-11-21T13:38:58;9.65;;;3.65;;
71038;SDS011;58692;43.212;27.908;2023-11-21T13:41:29;8.63;;;3.20;;
71038;SDS011;58692;43.212;27.908;2023-11-21T13:43:56;9.83;;;3.40;;
71038;SDS011;58692;43.212;27.908;2023-11-21T13:46:40;13.82;;;4.88;;
71038;SDS011;58692;43.212;27.908;2023-11-21T13:49:07;13.25;;;5.40;;
71038;SDS011;58692;43.212;27.908;2023-11-21T13:51:36;10.27;;;3.88;;
71038;SDS011;58692;43.212;27.908;2023-11-21T13:54:10;7.03;;;2.50;;
71038;SDS011;58692;43.212;27.908;2023-11-21T13:56:46;7.93;;;3.07;;
71038;SDS011;58692;43.212;27.908;2023-11-21T13:59:14;9.02;;;3.28;;
71038;SDS011;58692;43.212;27.908;2023-11-21T14:02:19;7.60;;;3.50;;
71038;SDS011;58692;43.212;27.908;2023-11-21T14:04:45;9.18;;;3.53;;
71038;SDS011;58692;43.212;27.908;2023-11-21T14:07:20;7.18;;;3.13;;
71038;SDS011;58692;43.212;27.908;2023-11-21T14:09:57;7.20;;;3.10;;
71038;SDS011;58692;43.212;27.908;2023-11-21T14:12:23;6.78;;;3.10;;
71038;SDS011;58692;43.212;27.908;2023-11-21T14:14:49;9.95;;;3.22;;
71038;SDS011;58692;43.212;27.908;2023-11-21T14:17:16;9.77;;;3.50;;
71038;SDS011;58692;43.212;27.908;2023-11-21T14:19:41;10.37;;;3.73;;
71038;SDS011;58692;43.212;27.908;2023-11-21T14:22:09;10.48;;;3.53;;
71038;SDS011;58692;43.212;27.908;2023-11-21T14:24:35;13.35;;;4.00;;
71038;SDS011;58692;43.212;27.908;2023-11-21T14:27:01;8.50;;;3.38;;
71038;SDS011;58692;43.212;27.908;2023-11-21T14:29:28;11.85;;;3.78;;
71038;SDS011;58692;43.212;27.908;2023-11-21T14:31:55;9.43;;;4.60;;
71038;SDS011;58692;43.212;27.908;2023-11-21T14:34:23;14.23;;;4.10;;
71038;SDS011;58692;43.212;27.908;2023-11-21T14:36:49;11.98;;;4.30;;
71038;SDS011;58692;43.212;27.908;2023-11-21T14:39:15;11.68;;;3.60;;
71038;SDS011;58692;43.212;27.908;2023-11-21T14:41:52;10.57;;;3.80;;
71038;SDS011;58692;43.212;27.908;2023-11-21T14:44:21;11.40;;;4.00;;
71038;SDS011;58692;43.212;27.908;2023-11-21T14:46:53;8.85;;;3.80;;